Time;durP1;ratioP1;P1;durP2;ratioP2;P2;SDS_P1;SDS_P2;PMS_P1;PMS_P2;Temp;Humidity;BMP_temperature;BMP_pressure;BME280_temperature;BME280_humidity;BME280_pressure;Samples;Min_cycle;Max_cycle;Signal;HPM_P1;HPM_P2
2021/06/17 00:00:26;;;;;;;6.97;3.45;;;;;;;24.52;60.96;100797.94;5007025;28;20030;-72
2021/06/17 00:02:54;;;;;;;5.05;3.70;;;;;;;24.48;61.21;100791.00;5011242;28;20048;-72
2021/06/17 00:05:20;;;;;;;6.15;3.20;;;;;;;24.62;60.20;100791.25;5008678;28;20033;-72
2021/06/17 00:07:47;;;;;;;7.20;3.40;;;;;;;24.54;59.86;100791.97;5007107;28;20037;-72
2021/06/17 00:10:37;;;;;;;9.43;3.42;;;;;;;24.44;60.63;100780.13;5007585;28;20030;-72
2021/06/17 00:13:08;;;;;;;4.95;3.25;;;;;;;24.54;59.71;100786.47;5009001;28;20057;-72
2021/06/17 00:15:35;;;;;;;6.03;2.92;;;;;;;24.33;60.92;100782.44;5012382;28;20021;-72
2021/06/17 00:18:02;;;;;;;6.28;3.42;;;;;;;24.45;59.98;100773.38;5012865;28;20478;-72
2021/06/17 00:20:29;;;;;;;5.30;3.35;;;;;;;24.41;59.82;100775.47;5029419;23;20046;-72
2021/06/17 00:22:56;;;;;;;6.95;3.60;;;;;;;24.45;59.52;100775.38;5001084;28;20119;-72
2021/06/17 00:25:21;;;;;;;4.95;3.78;;;;;;;24.46;59.61;100774.94;4982217;28;20037;-72
2021/06/17 00:27:47;;;;;;;3.72;3.38;;;;;;;24.14;61.85;100778.75;4999897;28;20037;-72
2021/06/17 00:30:14;;;;;;;5.43;3.17;;;;;;;23.96;61.95;100775.03;4996102;28;20104;-72
2021/06/17 00:32:40;;;;;;;5.22;3.25;;;;;;;23.97;61.77;100779.31;4984804;28;20026;-72
2021/06/17 00:35:07;;;;;;;5.15;3.17;;;;;;;23.98;62.56;100783.63;4996990;28;20037;-73
2021/06/17 00:37:33;;;;;;;5.57;3.58;;;;;;;23.99;62.13;100785.16;4979827;28;20037;-72
2021/06/17 00:39:59;;;;;;;4.53;3.20;;;;;;;24.22;60.04;100778.50;5000965;28;20030;-74
2021/06/17 00:42:25;;;;;;;6.13;3.38;;;;;;;24.27;60.27;100778.75;4996776;28;20152;-72
2021/06/17 00:44:51;;;;;;;6.80;3.10;;;;;;;23.98;61.93;100789.13;4984686;28;20060;-72
2021/06/17 00:47:17;;;;;;;4.80;3.17;;;;;;;24.17;60.96;100782.63;5000801;28;20144;-72
2021/06/17 00:49:42;;;;;;;11.27;3.70;;;;;;;24.00;61.43;100786.69;4996097;28;20037;-72
2021/06/17 00:52:08;;;;;;;4.25;2.97;;;;;;;23.90;61.61;100782.31;4997313;28;20092;-72
2021/06/17 00:54:34;;;;;;;3.40;3.10;;;;;;;23.84;62.28;100778.56;4983379;28;20028;-72
2021/06/17 00:57:06;;;;;;;6.50;3.10;;;;;;;23.70;62.36;100776.25;5000048;28;20112;-72
2021/06/17 00:59:32;;;;;;;4.47;3.00;;;;;;;23.51;62.56;100775.28;4998189;28;20034;-72
2021/06/17 01:01:58;;;;;;;4.50;3.13;;;;;;;23.70;61.77;100779.00;4998485;28;20084;-72
2021/06/17 01:04:27;;;;;;;5.57;2.90;;;;;;;23.80;61.37;100772.41;4995752;28;20497;-72
2021/06/17 01:06:54;;;;;;;5.47;2.78;;;;;;;23.64;62.06;100776.03;5001095;28;20569;-73
2021/06/17 01:10:04;;;;;;;6.35;2.95;;;;;;;23.58;61.35;100766.81;4997206;28;20089;-72
2021/06/17 01:12:47;;;;;;;4.50;3.08;;;;;;;23.53;62.56;100763.84;4998651;28;20058;-72
2021/06/17 01:15:18;;;;;;;7.68;2.80;;;;;;;23.56;61.32;100766.47;4999211;28;20403;-72
2021/06/17 01:17:51;;;;;;;5.65;2.90;;;;;;;23.70;60.83;100760.53;4978877;28;20427;-72
2021/06/17 01:20:30;;;;;;;4.50;2.80;;;;;;;23.55;61.80;100762.19;5002583;28;20083;-73
2021/06/17 01:23:32;;;;;;;5.07;2.90;;;;;;;23.56;61.03;100752.72;4996052;28;20044;-72
2021/06/17 01:26:12;;;;;;;4.82;2.80;;;;;;;23.47;61.68;100755.38;4986416;28;20030;-72
2021/06/17 01:28:40;;;;;;;6.13;2.67;;;;;;;23.37;61.69;100759.22;5000685;28;20064;-72
2021/06/17 01:31:10;;;;;;;4.00;2.70;;;;;;;23.39;61.78;100751.28;5001523;28;20037;-72
2021/06/17 01:33:38;;;;;;;4.07;2.95;;;;;;;23.37;61.03;100753.72;4998337;28;20032;-72
2021/06/17 01:36:07;;;;;;;3.78;2.80;;;;;;;23.44;60.60;100750.75;4981838;28;20630;-72
2021/06/17 01:38:33;;;;;;;6.03;2.95;;;;;;;23.41;60.37;100751.63;4994559;28;20042;-72
2021/06/17 01:41:02;;;;;;;5.18;2.80;;;;;;;23.42;61.10;100741.41;5000389;28;20081;-72
2021/06/17 01:43:29;;;;;;;4.47;2.72;;;;;;;23.32;61.61;100737.78;5001537;28;20041;-73
2021/06/17 01:45:54;;;;;;;6.72;2.92;;;;;;;23.27;62.16;100738.28;4979652;28;20491;-72
2021/06/17 01:48:21;;;;;;;7.30;2.90;;;;;;;23.32;61.31;100746.03;5002135;28;20094;-72
2021/06/17 01:50:48;;;;;;;6.55;2.30;;;;;;;23.33;61.12;100739.31;5000757;28;20034;-72
2021/06/17 01:53:20;;;;;;;3.22;2.83;;;;;;;23.23;62.01;100738.38;4994493;28;20770;-71
2021/06/17 01:55:47;;;;;;;5.75;2.70;;;;;;;23.22;61.84;100736.88;4997327;28;20085;-73
2021/06/17 01:58:14;;;;;;;4.10;2.60;;;;;;;22.94;63.47;100736.91;5003331;28;20026;-73
2021/06/17 02:00:43;;;;;;;4.15;2.38;;;;;;;22.91;64.15;100729.56;4987117;28;20121;-73
2021/06/17 02:03:10;;;;;;;5.60;2.72;;;;;;;22.98;62.90;100741.09;4997771;28;20108;-72
2021/06/17 02:05:36;;;;;;;4.38;2.88;;;;;;;23.09;62.88;100733.31;4994636;28;20038;-73
2021/06/17 02:08:04;;;;;;;3.75;2.72;;;;;;;23.16;61.31;100730.38;5001186;28;20022;-72
2021/06/17 02:10:31;;;;;;;5.32;3.00;;;;;;;23.05;62.65;100732.66;4998461;28;20026;-72
2021/06/17 02:12:58;;;;;;;3.83;2.45;;;;;;;22.98;62.81;100727.38;5000389;28;20390;-71
2021/06/17 02:15:28;;;;;;;4.35;2.90;;;;;;;22.93;62.41;100733.41;5001249;28;20402;-73
2021/06/17 02:17:56;;;;;;;4.57;2.45;;;;;;;22.95;62.30;100728.25;4980594;28;20096;-72
2021/06/17 02:20:22;;;;;;;4.03;2.67;;;;;;;22.93;61.90;100732.63;4998233;28;20038;-73
2021/06/17 02:22:51;;;;;;;5.50;2.78;;;;;;;22.68;61.98;100729.81;4993634;28;20725;-72
2021/06/17 02:25:18;;;;;;;4.80;2.60;;;;;;;22.76;62.02;100722.94;4997155;28;20099;-72
2021/06/17 02:27:47;;;;;;;4.53;2.63;;;;;;;22.80;62.38;100731.84;4976113;28;20034;-73
2021/06/17 02:30:15;;;;;;;7.07;2.63;;;;;;;22.76;61.60;100733.91;5004265;28;20489;-72
2021/06/17 02:32:49;;;;;;;5.43;2.80;;;;;;;22.77;61.47;100733.47;4976675;28;20173;-71
2021/06/17 02:35:20;;;;;;;4.75;2.85;;;;;;;22.68;62.46;100730.59;4997835;28;20046;-72
2021/06/17 02:37:50;;;;;;;6.50;2.70;;;;;;;22.56;63.68;100736.00;4977120;28;20589;-71
2021/06/17 02:40:17;;;;;;;3.47;2.30;;;;;;;22.39;64.07;100736.09;4978836;28;20023;-72
2021/06/17 02:42:44;;;;;;;2.83;2.53;;;;;;;22.50;64.99;100730.28;4996082;28;20113;-71
2021/06/17 02:45:10;;;;;;;5.43;2.47;;;;;;;22.49;64.10;100728.75;4996593;28;20052;-72
2021/06/17 02:47:38;;;;;;;3.40;2.80;;;;;;;22.41;63.21;100730.16;4998690;28;20085;-72
2021/06/17 02:50:07;;;;;;;5.57;2.40;;;;;;;22.48;63.15;100721.72;4995433;28;20089;-72
2021/06/17 02:52:33;;;;;;;5.40;2.50;;;;;;;22.37;63.24;100719.28;5002102;28;20030;-71
2021/06/17 02:54:58;;;;;;;4.82;2.53;;;;;;;22.31;63.90;100714.72;5002432;28;20402;-71
2021/06/17 02:57:57;;;;;;;4.35;2.63;;;;;;;22.51;62.78;100720.88;4987783;28;20455;-72
2021/06/17 03:00:27;;;;;;;3.75;2.40;;;;;;;22.60;62.53;100710.03;4968085;28;20042;-72
2021/06/17 03:03:03;;;;;;;3.80;2.40;;;;;;;22.34;65.51;100713.84;4999411;28;20038;-71
2021/06/17 03:05:35;;;;;;;4.03;2.35;;;;;;;22.48;63.28;100713.47;4996673;28;20180;-71
2021/06/17 03:08:10;;;;;;;3.63;2.35;;;;;;;22.29;64.15;100706.94;4996523;28;20037;-71
2021/06/17 03:10:36;;;;;;;4.70;2.63;;;;;;;22.24;64.42;100715.69;4996251;28;20049;-71
2021/06/17 03:13:05;;;;;;;3.38;2.38;;;;;;;22.00;67.04;100710.84;4998565;28;20029;-72
2021/06/17 03:15:35;;;;;;;4.13;2.40;;;;;;;22.01;66.14;100715.91;4998145;28;20049;-71
2021/06/17 03:18:04;;;;;;;4.75;2.72;;;;;;;21.82;67.21;100713.25;4999533;28;20032;-72
2021/06/17 03:20:32;;;;;;;5.43;2.70;;;;;;;22.19;65.59;100699.75;5002722;28;20030;-71
2021/06/17 03:23:02;;;;;;;5.00;2.38;;;;;;;22.08;66.53;100709.47;4998992;28;20044;-72
2021/06/17 03:25:27;;;;;;;6.05;2.75;;;;;;;21.90;67.35;100711.88;5007492;28;20033;-72
2021/06/17 03:27:55;;;;;;;4.50;2.20;;;;;;;21.92;67.31;100712.22;5003904;28;20100;-72
2021/06/17 03:30:23;;;;;;;3.75;2.53;;;;;;;21.77;68.43;100711.00;5003577;28;20643;-71
2021/06/17 03:32:50;;;;;;;5.93;2.50;;;;;;;21.68;68.42;100710.84;5002988;28;20022;-72
2021/06/17 03:35:20;;;;;;;4.47;2.45;;;;;;;21.60;69.17;100714.97;4996531;28;20056;-71
2021/06/17 03:37:52;;;;;;;4.37;2.20;;;;;;;21.63;70.00;100716.84;5015652;28;20030;-71
2021/06/17 03:40:19;;;;;;;5.57;2.35;;;;;;;21.70;70.11;100708.44;4995956;28;20525;-73
2021/06/17 03:42:51;;;;;;;4.28;2.42;;;;;;;21.67;69.39;100723.00;4992589;28;20676;-73
2021/06/17 03:45:18;;;;;;;2.63;2.42;;;;;;;21.62;69.19;100718.81;4971027;28;20034;-74
2021/06/17 03:47:47;;;;;;;3.13;2.45;;;;;;;21.67;70.38;100732.00;4994338;28;20114;-74
2021/06/17 03:50:14;;;;;;;2.67;2.40;;;;;;;21.78;69.36;100724.28;4991663;28;20403;-73
2021/06/17 03:52:44;;;;;;;5.18;2.28;;;;;;;21.73;69.62;100718.56;5005552;28;20152;-73
2021/06/17 03:55:11;;;;;;;4.40;2.33;;;;;;;21.54;68.67;100720.19;5000801;28;20029;-72
2021/06/17 03:57:37;;;;;;;4.60;2.53;;;;;;;21.45;70.66;100718.03;4998665;28;20037;-74
2021/06/17 04:00:04;;;;;;;6.18;2.50;;;;;;;21.54;68.58;100728.41;4999742;28;20030;-74
2021/06/17 04:02:38;;;;;;;4.80;2.38;;;;;;;21.77;68.22;100717.28;5007550;28;20026;-73
2021/06/17 04:05:05;;;;;;;3.58;2.45;;;;;;;21.77;70.02;100713.75;4998868;28;20034;-73
2021/06/17 04:07:33;;;;;;;5.32;2.55;;;;;;;21.83;69.56;100721.06;4998973;28;20092;-74
2021/06/17 04:10:00;;;;;;;4.70;2.40;;;;;;;21.87;70.70;100710.00;4996214;28;20453;-73
2021/06/17 04:12:29;;;;;;;3.97;2.40;;;;;;;21.89;68.43;100716.59;4976851;28;20088;-73
2021/06/17 04:14:58;;;;;;;3.20;2.35;;;;;;;22.07;67.13;100707.91;4997597;28;20042;-73
2021/06/17 04:17:27;;;;;;;4.75;2.70;;;;;;;22.16;67.75;100703.34;5007805;28;20039;-74
2021/06/17 04:19:55;;;;;;;4.30;2.10;;;;;;;22.17;68.08;100709.63;4998701;28;20042;-73
2021/06/17 04:22:23;;;;;;;3.88;2.67;;;;;;;22.01;69.10;100704.19;5006316;28;20030;-73
2021/06/17 04:24:56;;;;;;;3.88;2.40;;;;;;;21.99;69.58;100714.81;5004734;28;20089;-74
2021/06/17 04:27:22;;;;;;;7.07;2.33;;;;;;;22.11;68.85;100714.09;5011114;28;20026;-73
2021/06/17 04:29:49;;;;;;;3.65;2.40;;;;;;;21.94;68.96;100709.81;5001535;28;20037;-74
2021/06/17 04:32:15;;;;;;;6.97;2.42;;;;;;;22.17;68.53;100704.91;4988554;28;20033;-73
2021/06/17 04:34:42;;;;;;;5.43;2.50;;;;;;;22.28;66.85;100708.13;4969102;28;20399;-72
2021/06/17 04:37:11;;;;;;;2.85;2.50;;;;;;;22.06;67.79;100698.94;5006817;28;20060;-73
2021/06/17 04:39:38;;;;;;;3.92;2.50;;;;;;;22.18;68.14;100706.44;5003228;28;20760;-73
2021/06/17 04:42:06;;;;;;;3.10;2.30;;;;;;;22.33;68.70;100712.31;5007209;28;20510;-74
2021/06/17 04:44:32;;;;;;;6.43;2.38;;;;;;;22.27;70.54;100703.84;5008506;28;20034;-74
2021/06/17 04:46:59;;;;;;;4.65;2.78;;;;;;;22.30;69.78;100702.19;4994513;28;20459;-73
2021/06/17 04:49:25;;;;;;;3.30;2.63;;;;;;;22.31;69.98;100704.53;4994996;28;20035;-71
2021/06/17 04:51:53;;;;;;;3.47;2.65;;;;;;;22.09;71.98;100700.03;5003988;28;20088;-74
2021/06/17 04:54:19;;;;;;;4.03;2.45;;;;;;;21.99;72.22;100695.59;5003216;28;20088;-74
2021/06/17 04:56:46;;;;;;;7.55;2.80;;;;;;;22.20;71.49;100692.31;5002716;28;20030;-74
2021/06/17 04:59:13;;;;;;;3.95;2.55;;;;;;;22.39;68.36;100694.13;4993158;28;20030;-72
2021/06/17 05:01:40;;;;;;;3.95;2.95;;;;;;;22.60;68.00;100693.56;4994085;28;20034;-73
2021/06/17 05:04:09;;;;;;;4.03;2.70;;;;;;;22.63;68.68;100692.69;5006422;28;20038;-73
2021/06/17 05:06:37;;;;;;;4.63;2.75;;;;;;;22.71;67.96;100690.50;5003152;28;20029;-74
2021/06/17 05:11:52;;;;;;;5.28;3.20;;;;;;;22.91;67.47;100699.34;4993526;28;20038;-74
2021/06/17 05:14:19;;;;;;;4.00;3.10;;;;;;;23.20;64.89;100695.31;4980135;28;20495;-74
2021/06/17 05:16:45;;;;;;;7.65;3.08;;;;;;;24.23;62.66;100695.50;4989597;28;20029;-73
2021/06/17 05:19:11;;;;;;;3.95;2.58;;;;;;;25.36;57.97;100702.31;5006615;28;21587;-73
2021/06/17 05:21:36;;;;;;;5.22;2.92;;;;;;;26.06;57.09;100704.16;4999953;28;20176;-73
2021/06/17 05:24:02;;;;;;;3.30;2.70;;;;;;;26.77;55.62;100711.66;5003640;28;20571;-74
2021/06/17 05:26:28;;;;;;;4.20;2.80;;;;;;;27.26;51.84;100707.81;5006180;28;20025;-74
2021/06/17 05:28:54;;;;;;;3.53;2.53;;;;;;;27.77;50.90;100716.81;4999544;28;20121;-74
2021/06/17 05:31:23;;;;;;;5.22;3.00;;;;;;;28.10;49.79;100717.53;5000798;28;20046;-74
2021/06/17 05:33:48;;;;;;;5.80;3.42;;;;;;;28.19;49.54;100711.91;5000841;28;20041;-74
2021/06/17 05:36:15;;;;;;;5.18;3.20;;;;;;;28.38;49.10;100709.75;4986229;28;20096;-74
2021/06/17 05:38:41;;;;;;;5.82;3.28;;;;;;;28.21;49.54;100716.97;5011631;28;20026;-74
2021/06/17 05:41:06;;;;;;;5.55;3.22;;;;;;;28.46;48.47;100708.13;5007908;28;20117;-73
2021/06/17 05:43:32;;;;;;;3.53;3.17;;;;;;;28.53;48.94;100714.06;5009442;28;20089;-74
2021/06/17 05:45:57;;;;;;;4.13;3.05;;;;;;;28.58;49.05;100712.66;4989896;28;20041;-74
2021/06/17 05:48:23;;;;;;;5.95;3.20;;;;;;;28.69;49.05;100723.22;4989356;28;20104;-73
2021/06/17 05:50:49;;;;;;;5.45;3.10;;;;;;;29.06;48.42;100713.22;5002423;28;20038;-74
2021/06/17 05:53:15;;;;;;;5.82;3.22;;;;;;;28.92;49.10;100719.56;4990632;28;20041;-74
2021/06/17 05:55:41;;;;;;;5.93;3.25;;;;;;;28.86;48.97;100722.22;4988355;28;20108;-74
2021/06/17 05:58:06;;;;;;;7.50;3.40;;;;;;;28.81;48.60;100733.22;5004403;28;20037;-73
2021/06/17 06:00:32;;;;;;;5.85;3.28;;;;;;;29.01;48.59;100734.09;5000850;28;20360;-74
2021/06/17 06:02:57;;;;;;;4.97;3.60;;;;;;;28.84;48.40;100732.28;5006281;28;20088;-75
2021/06/17 06:05:23;;;;;;;4.25;3.70;;;;;;;28.84;49.79;100733.03;5007764;28;20045;-75
2021/06/17 06:08:03;;;;;;;5.90;3.42;;;;;;;29.03;50.22;100730.84;5004624;28;20080;-74
2021/06/17 06:10:30;;;;;;;7.38;3.75;;;;;;;29.01;49.57;100736.88;5002444;28;20034;-74
2021/06/17 06:12:56;;;;;;;5.90;3.72;;;;;;;28.60;50.74;100728.81;5000567;28;20117;-75
2021/06/17 06:15:22;;;;;;;11.32;3.83;;;;;;;28.72;49.78;100728.56;5001444;28;20542;-74
2021/06/17 06:17:48;;;;;;;6.22;3.53;;;;;;;28.42;50.45;100730.50;5009104;28;20044;-74
2021/06/17 06:20:15;;;;;;;4.40;3.58;;;;;;;28.81;49.58;100725.69;5033095;23;20131;-76
2021/06/17 06:22:42;;;;;;;7.65;4.13;;;;;;;28.80;50.34;100735.25;5026168;28;20394;-76
2021/06/17 06:25:08;;;;;;;9.35;3.95;;;;;;;28.19;51.18;100741.63;5029603;28;20048;-76
2021/06/17 06:27:33;;;;;;;10.43;4.10;;;;;;;28.44;51.77;100735.56;5025232;28;20071;-76
2021/06/17 06:30:02;;;;;;;10.07;4.60;;;;;;;28.73;51.32;100734.84;5012911;28;20072;-76
2021/06/17 06:32:29;;;;;;;8.55;4.57;;;;;;;28.45;51.41;100745.41;5003929;28;20053;-76
2021/06/17 06:34:55;;;;;;;6.20;4.32;;;;;;;28.62;51.15;100745.75;5007357;28;20030;-76
2021/06/17 06:37:20;;;;;;;5.63;4.28;;;;;;;28.75;51.05;100738.69;5008218;28;20482;-75
2021/06/17 06:39:46;;;;;;;7.10;4.10;;;;;;;28.57;51.53;100736.09;5004878;28;20058;-76
2021/06/17 06:42:11;;;;;;;5.97;4.40;;;;;;;28.50;52.21;100734.44;5009541;28;20034;-75
2021/06/17 06:44:37;;;;;;;5.93;4.35;;;;;;;28.76;52.22;100740.22;5009689;28;20037;-76
2021/06/17 06:47:02;;;;;;;9.18;4.03;;;;;;;28.95;54.31;100736.03;5008245;28;20037;-75
2021/06/17 06:49:28;;;;;;;5.20;4.40;;;;;;;29.10;52.00;100739.53;5006411;28;20037;-76
2021/06/17 06:51:53;;;;;;;7.72;4.68;;;;;;;29.09;52.12;100743.53;5006575;28;20026;-75
2021/06/17 06:54:19;;;;;;;8.15;4.25;;;;;;;28.98;51.74;100740.59;4999339;28;20026;-76
2021/06/17 06:56:47;;;;;;;8.30;4.40;;;;;;;29.09;52.95;100740.78;5002310;28;20084;-75
2021/06/17 06:59:13;;;;;;;9.00;4.32;;;;;;;29.18;51.52;100751.03;4999382;28;20057;-75
2021/06/17 07:01:38;;;;;;;11.80;4.43;;;;;;;29.27;52.11;100753.69;5003904;28;20051;-75
2021/06/17 07:04:05;;;;;;;6.28;5.00;;;;;;;29.04;52.55;100749.78;5001098;28;20026;-75
2021/06/17 07:06:31;;;;;;;7.95;4.75;;;;;;;29.02;54.49;100751.50;4996420;28;20095;-76
2021/06/17 07:08:56;;;;;;;9.23;4.70;;;;;;;29.22;54.96;100748.84;4998626;28;20049;-75
2021/06/17 07:11:22;;;;;;;6.72;4.75;;;;;;;29.07;53.53;100750.84;4995427;28;20045;-75
2021/06/17 07:13:48;;;;;;;8.95;5.03;;;;;;;29.31;53.26;100760.59;5003806;28;20657;-75
2021/06/17 07:16:13;;;;;;;8.10;5.38;;;;;;;29.23;53.00;100761.47;5011374;28;20037;-75
2021/06/17 07:18:39;;;;;;;4.70;4.28;;;;;;;28.81;53.24;100760.97;5006972;28;20038;-75
2021/06/17 07:21:04;;;;;;;10.57;5.53;;;;;;;28.55;54.41;100762.78;5004537;28;20025;-76
2021/06/17 07:23:31;;;;;;;5.88;5.20;;;;;;;28.67;53.52;100764.53;5009412;28;20087;-75
2021/06/17 07:25:56;;;;;;;7.55;5.30;;;;;;;28.60;56.36;100759.31;5008727;28;20123;-75
2021/06/17 07:28:22;;;;;;;9.45;5.35;;;;;;;29.13;54.36;100758.03;5004190;28;20057;-76
2021/06/17 07:30:48;;;;;;;7.30;5.20;;;;;;;29.40;54.35;100759.72;5006063;28;20445;-76
2021/06/17 07:33:13;;;;;;;7.32;5.00;;;;;;;29.70;55.32;100761.19;4992530;28;20516;-75
2021/06/17 07:35:39;;;;;;;8.55;4.88;;;;;;;29.97;53.41;100746.94;5006180;28;20033;-75
2021/06/17 07:38:04;;;;;;;8.98;5.35;;;;;;;30.03;52.54;100750.53;5006101;28;20034;-76
2021/06/17 07:40:30;;;;;;;7.00;4.80;;;;;;;30.10;52.44;100744.56;5007090;28;20240;-76
2021/06/17 07:42:56;;;;;;;7.50;5.22;;;;;;;30.17;51.32;100743.38;5007061;28;20408;-75
2021/06/17 07:45:25;;;;;;;7.07;5.40;;;;;;;29.57;53.15;100752.41;5004330;28;20037;-76
2021/06/17 07:47:51;;;;;;;6.57;5.05;;;;;;;30.09;54.43;100747.84;5007808;28;20026;-76
2021/06/17 07:50:16;;;;;;;6.20;5.43;;;;;;;29.52;52.83;100761.41;5006925;28;20037;-76
2021/06/17 07:52:42;;;;;;;8.25;5.22;;;;;;;29.68;52.67;100763.69;5008920;28;20037;-76
2021/06/17 07:55:08;;;;;;;10.48;5.30;;;;;;;29.61;52.95;100761.31;5008676;28;20038;-76
2021/06/17 07:57:34;;;;;;;7.38;4.75;;;;;;;29.87;54.46;100751.09;5007111;28;20041;-76
2021/06/17 07:59:59;;;;;;;7.90;5.43;;;;;;;30.26;52.97;100760.69;5008024;28;20030;-76
2021/06/17 08:02:26;;;;;;;7.90;4.95;;;;;;;30.02;53.33;100760.13;5003289;28;20037;-75
2021/06/17 08:04:52;;;;;;;12.77;4.88;;;;;;;30.58;53.20;100758.03;5004404;28;20041;-76
2021/06/17 08:07:18;;;;;;;7.68;5.00;;;;;;;30.81;53.13;100759.78;5000117;28;20121;-76
2021/06/17 08:09:43;;;;;;;8.45;5.35;;;;;;;31.13;52.67;100759.31;4995817;28;20029;-76
2021/06/17 08:12:09;;;;;;;8.57;5.30;;;;;;;31.06;50.47;100770.16;4996104;28;20394;-77
2021/06/17 08:14:35;;;;;;;7.72;4.90;;;;;;;31.13;51.78;100757.81;5003143;28;20165;-77
2021/06/17 08:17:00;;;;;;;11.40;5.57;;;;;;;30.88;51.31;100753.78;5005751;28;20108;-77
2021/06/17 08:19:30;;;;;;;12.02;5.50;;;;;;;31.30;51.08;100753.13;5001853;28;20041;-76
2021/06/17 08:22:05;;;;;;;8.73;4.90;;;;;;;31.26;51.87;100755.38;5001753;28;20071;-76
2021/06/17 08:24:32;;;;;;;7.72;4.82;;;;;;;31.52;51.35;100753.28;5002515;28;20033;-76
2021/06/17 08:26:58;;;;;;;9.68;5.25;;;;;;;31.69;50.84;100760.50;4999764;28;20026;-77
2021/06/17 08:29:24;;;;;;;6.07;4.75;;;;;;;31.85;51.52;100762.63;5001764;28;20038;-76
2021/06/17 08:31:49;;;;;;;8.50;5.07;;;;;;;32.23;51.45;100763.31;4998318;28;20037;-75
2021/06/17 08:34:15;;;;;;;5.97;5.15;;;;;;;32.50;50.43;100754.31;5001301;28;20148;-76
2021/06/17 08:36:41;;;;;;;9.52;5.13;;;;;;;32.41;50.22;100748.91;5003549;28;20176;-76
2021/06/17 08:39:07;;;;;;;6.47;5.38;;;;;;;32.21;49.24;100749.13;5000950;28;20033;-77
2021/06/17 08:41:33;;;;;;;5.60;4.82;;;;;;;32.10;49.61;100744.25;4999564;28;20116;-76
2021/06/17 08:43:59;;;;;;;9.60;5.18;;;;;;;32.38;50.24;100739.53;5002917;28;20097;-76
2021/06/17 08:46:25;;;;;;;8.60;4.97;;;;;;;32.48;50.50;100734.53;5008813;28;20054;-76
2021/06/17 08:48:51;;;;;;;19.42;5.10;;;;;;;32.53;49.20;100726.16;5009717;28;20504;-77
2021/06/17 08:51:18;;;;;;;8.88;5.15;;;;;;;32.77;49.82;100734.78;5003840;28;20032;-76
2021/06/17 08:53:44;;;;;;;9.00;5.28;;;;;;;32.35;49.70;100731.41;5009773;28;20088;-76
2021/06/17 08:56:09;;;;;;;8.43;5.43;;;;;;;32.59;48.95;100726.16;5009032;28;20176;-76
2021/06/17 08:58:35;;;;;;;7.18;5.10;;;;;;;32.92;49.27;100726.19;5010892;28;20150;-77
2021/06/17 09:01:09;;;;;;;12.13;5.63;;;;;;;33.10;49.06;100736.84;5009189;28;20057;-76
2021/06/17 09:03:38;;;;;;;9.20;5.20;;;;;;;33.03;49.03;100726.22;5008674;28;20401;-76
2021/06/17 09:06:04;;;;;;;11.00;5.22;;;;;;;33.22;48.17;100732.03;5000467;28;20033;-76
2021/06/17 09:08:31;;;;;;;10.65;5.30;;;;;;;33.42;49.42;100724.13;5006610;28;20034;-76
2021/06/17 09:10:57;;;;;;;8.27;5.43;;;;;;;33.56;48.16;100716.75;5003761;28;20048;-75
2021/06/17 09:13:31;;;;;;;6.95;4.72;;;;;;;33.79;48.55;100720.25;5008800;28;20038;-76
2021/06/17 09:15:57;;;;;;;5.63;5.07;;;;;;;33.43;47.46;100731.22;5006959;28;20120;-75
2021/06/17 09:18:22;;;;;;;6.50;4.75;;;;;;;33.11;47.89;100723.66;5011829;28;20136;-76
2021/06/17 09:20:57;;;;;;;8.98;5.05;;;;;;;33.31;48.69;100728.97;5002081;28;20497;-76
2021/06/17 09:23:41;;;;;;;9.30;5.28;;;;;;;33.58;48.75;100719.81;5010117;28;20044;-75
2021/06/17 09:26:19;;;;;;;12.20;5.47;;;;;;;33.96;49.14;100716.09;5006432;28;20351;-76
2021/06/17 09:29:18;;;;;;;8.50;5.60;;;;;;;33.53;47.29;100714.97;5008457;28;20124;-76
2021/06/17 09:31:44;;;;;;;9.38;5.38;;;;;;;33.93;48.30;100711.56;5003937;28;20601;-76
2021/06/17 09:34:11;;;;;;;9.60;5.70;;;;;;;33.96;46.90;100698.56;5009976;28;20040;-75
2021/06/17 09:36:39;;;;;;;7.93;5.38;;;;;;;33.82;47.14;100696.88;5008527;28;20657;-75
2021/06/17 09:39:10;;;;;;;5.80;5.20;;;;;;;34.16;48.44;100695.44;5004810;28;20468;-75
2021/06/17 09:41:43;;;;;;;;;;;;;;;34.50;47.41;100691.16;5009728;28;20030;-76
2021/06/17 09:44:37;;;;;;;8.18;5.35;;;;;;;34.95;46.31;100685.97;5009836;28;19920;-76
2021/06/17 09:47:07;;;;;;;7.60;5.50;;;;;;;35.18;45.47;100681.69;5008293;28;20109;-75
2021/06/17 09:49:34;;;;;;;8.90;6.00;;;;;;;34.84;44.70;100686.09;5004871;28;20502;-76
2021/06/17 09:52:00;;;;;;;10.05;5.97;;;;;;;34.64;46.28;100687.25;5009640;28;20084;-76
2021/06/17 09:54:27;;;;;;;6.68;5.60;;;;;;;34.79;46.00;100678.47;5009630;28;20387;-75
2021/06/17 09:57:01;;;;;;;7.38;5.72;;;;;;;35.22;46.01;100682.94;4999234;28;20038;-76
2021/06/17 09:59:49;;;;;;;8.85;5.70;;;;;;;35.51;44.58;100684.19;5006683;28;20395;-76
2021/06/17 10:02:18;;;;;;;11.00;5.50;;;;;;;35.35;45.36;100679.47;5010160;28;20108;-76
2021/06/17 10:04:45;;;;;;;9.52;5.68;;;;;;;35.52;45.49;100682.91;5005265;28;20767;-76
2021/06/17 10:07:10;;;;;;;12.77;5.50;;;;;;;35.52;45.54;100680.09;5020760;28;20747;-76
2021/06/17 10:09:36;;;;;;;9.23;5.80;;;;;;;35.16;45.23;100687.84;5001122;28;20104;-76
2021/06/17 10:12:03;;;;;;;8.65;5.78;;;;;;;35.55;45.00;100683.88;5001650;28;20704;-77
2021/06/17 10:14:31;;;;;;;9.27;5.75;;;;;;;35.71;45.65;100694.16;5000156;28;20034;-76
2021/06/17 10:16:58;;;;;;;8.15;5.85;;;;;;;35.30;44.79;100695.09;4993460;28;20079;-76
2021/06/17 10:19:24;;;;;;;10.40;5.57;;;;;;;35.33;44.53;100682.81;5001193;28;20042;-76
2021/06/17 10:21:50;;;;;;;6.57;5.15;;;;;;;35.37;43.82;100685.31;5002576;28;20121;-76
2021/06/17 10:24:17;;;;;;;11.95;5.82;;;;;;;35.65;44.28;100674.59;5004502;28;20045;-76
2021/06/17 10:26:45;;;;;;;12.82;5.50;;;;;;;35.52;43.74;100679.34;5006132;28;20053;-76
2021/06/17 10:29:34;;;;;;;6.60;5.22;;;;;;;35.52;44.02;100668.88;5007427;28;20636;-77
2021/06/17 10:32:00;;;;;;;7.63;5.15;;;;;;;35.79;43.69;100667.75;5006113;28;20030;-77
2021/06/17 10:34:26;;;;;;;7.68;5.53;;;;;;;35.78;42.91;100660.66;5007592;28;20033;-77
2021/06/17 10:37:18;;;;;;;8.40;4.68;;;;;;;36.38;42.37;100658.28;5008229;28;20034;-77
2021/06/17 10:39:48;;;;;;;6.72;5.00;;;;;;;36.68;41.46;100656.03;5002784;28;20048;-76
2021/06/17 10:42:35;;;;;;;9.68;5.60;;;;;;;36.42;42.91;100660.81;5003570;28;20046;-76
2021/06/17 10:45:03;;;;;;;7.65;5.40;;;;;;;35.93;42.32;100666.59;5005923;28;20117;-76
2021/06/17 10:47:41;;;;;;;9.73;4.97;;;;;;;36.19;42.88;100663.16;5002848;28;20047;-76
2021/06/17 10:50:11;;;;;;;55.65;8.77;;;;;;;35.87;42.24;100663.06;5004050;28;20042;-77
2021/06/17 10:52:40;;;;;;;12.63;5.43;;;;;;;35.86;43.57;100653.16;5008430;28;20125;-76
2021/06/17 10:55:13;;;;;;;6.65;5.68;;;;;;;36.06;43.44;100663.13;5004695;28;20113;-76
2021/06/17 10:57:45;;;;;;;17.33;6.05;;;;;;;36.66;43.52;100653.00;5001934;28;20548;-76
2021/06/17 11:00:26;;;;;;;6.85;4.70;;;;;;;36.71;42.05;100659.81;5002116;28;20037;-76
2021/06/17 11:03:18;;;;;;;7.72;4.70;;;;;;;36.75;40.94;100646.97;5001988;28;20046;-76
2021/06/17 11:05:48;;;;;;;5.38;4.40;;;;;;;37.13;40.39;100644.78;4994987;28;20053;-77
2021/06/17 11:08:22;;;;;;;5.40;3.97;;;;;;;37.08;38.52;100642.84;5007780;28;20505;-76
2021/06/17 11:11:07;;;;;;;7.18;4.53;;;;;;;36.36;38.87;100644.03;4994523;28;20857;-77
2021/06/17 11:13:38;;;;;;;5.72;4.53;;;;;;;36.08;39.12;100652.13;5019880;28;20556;-77
2021/06/17 11:16:29;;;;;;;6.05;3.95;;;;;;;36.16;39.43;100650.22;5000423;28;20030;-76
2021/06/17 11:18:58;;;;;;;6.13;4.38;;;;;;;36.39;38.92;100643.00;5004148;28;20044;-76
2021/06/17 11:21:27;;;;;;;10.02;3.80;;;;;;;36.81;38.53;100639.22;5003695;28;20096;-77
2021/06/17 11:23:52;;;;;;;6.30;4.22;;;;;;;36.95;38.61;100643.56;5000241;28;20084;-76
2021/06/17 11:26:38;;;;;;;7.35;4.40;;;;;;;36.56;38.15;100642.72;5014011;28;20033;-76
2021/06/17 11:29:12;;;;;;;9.35;4.30;;;;;;;36.76;38.36;100631.63;4999426;28;20092;-76
2021/06/17 11:31:44;;;;;;;4.95;4.07;;;;;;;37.05;38.01;100632.69;5002189;28;20038;-76
2021/06/17 11:34:15;;;;;;;6.20;4.00;;;;;;;36.82;36.17;100637.13;5007744;28;20160;-76